weather

Current weather and weather forecast of LSZH


METAR

LSZH 211850Z 23001KT 9999 FEW060 25/17 Q1023 NOSIG
AirportLSZH
AirportnameZurich
TimeSunday, July 21st, 18:50 UTC
WindSW(230°) at 1kt
Visibilitygreater than 10km/6sm
Cloudspartly cloudy at 6000ft
Temperature25°C/77°F
Dewpoint17°C/63°F
RelativeHumidity61%
Altimeter1023mb/30.21inhg
Trendno significant changes expected
© decoder by M.Welten

TAF

TAF LSZH 211725Z 2118/2224 VRB03KT 9999 FEW050 TX30/2215Z TN15/2204Z BECMG 2118/2120 CAVOK PROB40 2202/2205 9999 MIFG NSC PROB40 TEMPO 2209/2216 9999 FEW050 TEMPO 2215/2218 06006KT
ForecasttypeTAF
AirportLSZH
AirportnameZurich
TimeSunday, July 21st, 17:25 UTC
Forecast
Validity21st 18:00 UTC - 22nd 24:00 UTC
Windvaries at 3kt
Visibilitygreater than 10km/6sm
Cloudspartly cloudy at 5000ft
Temperaturesmax-temperature of 30°C/86°F at 15:00 UTC on the 22nd.
min-temperature of 15°C/59°F at 04:00 UTC on the 22nd.
 
Typebecoming
Validity21st 18:00 UTC - 21st 20:00 UTC
 
Type40% probability
Validity22nd 02:00 UTC - 22nd 05:00 UTC
Visibilitygreater than 10km/6sm
Precipitationshallow fog
Cloudsnil significant clouds
 
Type40% probability temporary
Validity22nd 09:00 UTC - 22nd 16:00 UTC
Visibilitygreater than 10km/6sm
Cloudspartly cloudy at 5000ft
 
Typetemporary
Validity22nd 15:00 UTC - 22nd 18:00 UTC
WindENE(060°) at 6kt
© decoder by M.Welten